createdAt,value
2019-03-23T00:01:20.888Z,5.80
2019-03-23T00:04:02.824Z,5.60
2019-03-23T00:06:44.778Z,5.60
2019-03-23T00:09:27.687Z,5.60
2019-03-23T00:12:09.568Z,5.60
2019-03-23T00:14:51.528Z,5.50
2019-03-23T00:17:33.767Z,5.50
2019-03-23T00:20:15.673Z,5.50
2019-03-23T00:22:57.581Z,5.50
2019-03-23T00:25:39.330Z,5.40
2019-03-23T00:28:21.448Z,5.50
2019-03-23T00:31:03.395Z,5.50
2019-03-23T00:33:45.364Z,5.60
2019-03-23T00:36:27.264Z,5.40
2019-03-23T00:39:09.552Z,5.30
2019-03-23T00:41:51.471Z,5.00
2019-03-23T00:44:33.457Z,5.10
2019-03-23T00:47:15.424Z,5.10
2019-03-23T00:49:57.305Z,5.10
2019-03-23T00:52:39.280Z,5.00
2019-03-23T00:55:21.391Z,5.20
2019-03-23T00:58:03.331Z,5.10
2019-03-23T01:00:45.119Z,5.10
2019-03-23T01:03:27.187Z,5.10
2019-03-23T01:06:09.064Z,5.20
2019-03-23T01:08:51.121Z,5.10
2019-03-23T01:11:32.835Z,5.00
2019-03-23T01:14:00.943Z,5.00
2019-03-23T01:16:42.704Z,5.00
2019-03-23T01:19:24.692Z,5.00
2019-03-23T01:22:06.557Z,5.00
2019-03-23T01:24:48.634Z,5.00
2019-03-23T01:27:30.525Z,5.00
2019-03-23T01:30:11.751Z,4.90
2019-03-23T01:32:39.883Z,4.80
2019-03-23T01:35:21.399Z,4.90
2019-03-23T01:38:03.566Z,4.90
2019-03-23T01:40:45.579Z,4.70
2019-03-23T01:43:27.560Z,4.80
2019-03-23T01:46:09.803Z,4.90
2019-03-23T01:48:51.664Z,4.90
2019-03-23T01:51:19.752Z,4.90
2019-03-23T01:54:01.504Z,4.90
2019-03-23T01:56:43.351Z,4.80
2019-03-23T01:59:25.275Z,4.90
2019-03-23T02:02:07.142Z,4.80
2019-03-23T02:04:49.255Z,4.90
2019-03-23T02:07:30.955Z,4.80
2019-03-23T02:10:12.868Z,4.80
2019-03-23T02:12:55.157Z,4.80
2019-03-23T02:15:37.176Z,4.80
2019-03-23T02:18:19.138Z,4.70
2019-03-23T02:21:01.218Z,4.70
2019-03-23T02:23:43.219Z,4.60
2019-03-23T02:26:25.379Z,4.50
2019-03-23T02:29:07.187Z,4.40
2019-03-23T02:31:49.274Z,4.50
2019-03-23T02:34:31.315Z,4.40
2019-03-23T02:37:13.082Z,4.30
2019-03-23T02:39:55.132Z,4.20
2019-03-23T02:42:37.078Z,4.30
2019-03-23T02:45:18.985Z,4.10
2019-03-23T02:50:41.655Z,4.20
2019-03-23T02:53:23.736Z,4.30
2019-03-23T02:56:05.945Z,4.20
2019-03-23T02:58:47.912Z,4.30
2019-03-23T03:01:30.036Z,4.30
2019-03-23T03:04:13.809Z,4.30
2019-03-23T03:06:54.929Z,4.30
2019-03-23T03:09:36.836Z,4.30
2019-03-23T03:12:18.725Z,4.30
2019-03-23T03:15:00.648Z,4.20
2019-03-23T03:17:42.542Z,4.20
2019-03-23T03:20:24.404Z,4.10
2019-03-23T03:23:06.832Z,4.10
2019-03-23T03:25:48.700Z,4.20
2019-03-23T03:28:30.527Z,4.00
2019-03-23T03:31:12.296Z,4.20
2019-03-23T03:33:54.469Z,4.10
2019-03-23T03:36:37.430Z,4.00
2019-03-23T03:39:19.335Z,4.00
2019-03-23T03:42:01.213Z,4.00
2019-03-23T03:44:43.308Z,3.90
2019-03-23T03:47:25.480Z,3.90
2019-03-23T03:50:07.457Z,3.90
2019-03-23T03:52:49.372Z,4.00
2019-03-23T03:55:30.412Z,4.00
2019-03-23T03:58:12.363Z,3.90
2019-03-23T04:00:54.302Z,3.80
2019-03-23T04:03:36.221Z,4.00
2019-03-23T04:06:17.963Z,4.00
2019-03-23T04:09:00.126Z,4.00
2019-03-23T04:11:42.051Z,3.90
2019-03-23T04:14:24.022Z,3.90
2019-03-23T04:17:06.155Z,3.80
2019-03-23T04:19:47.431Z,3.80
2019-03-23T04:22:30.309Z,3.90
2019-03-23T04:25:12.332Z,3.70
2019-03-23T04:27:54.040Z,3.80
2019-03-23T04:30:36.339Z,3.80
2019-03-23T04:33:18.280Z,3.80
2019-03-23T04:36:00.320Z,3.80
2019-03-23T04:38:42.236Z,3.80
2019-03-23T04:41:25.365Z,3.70
2019-03-23T04:44:07.329Z,3.70
2019-03-23T04:46:49.162Z,3.70
2019-03-23T04:49:31.056Z,3.60
2019-03-23T04:52:13.131Z,3.60
2019-03-23T04:54:54.867Z,3.60
2019-03-23T04:57:38.656Z,3.70
2019-03-23T05:00:20.652Z,3.60
2019-03-23T05:03:02.587Z,3.50
2019-03-23T05:05:44.896Z,3.60
2019-03-23T05:08:33.418Z,3.60
2019-03-23T05:11:10.157Z,3.60
2019-03-23T05:13:51.991Z,3.60
2019-03-23T05:16:34.082Z,3.60
2019-03-23T05:19:16.171Z,3.50
2019-03-23T05:21:58.266Z,3.50
2019-03-23T05:24:40.403Z,3.50
2019-03-23T05:27:22.359Z,3.50
2019-03-23T05:30:04.245Z,3.50
2019-03-23T05:32:46.278Z,3.60
2019-03-23T05:35:27.535Z,3.50
2019-03-23T05:38:09.697Z,3.60
2019-03-23T05:40:51.698Z,3.60
2019-03-23T05:43:33.435Z,3.50
2019-03-23T05:46:15.436Z,3.50
2019-03-23T05:48:57.425Z,3.50
2019-03-23T05:51:39.220Z,3.50
2019-03-23T05:54:21.209Z,3.50
2019-03-23T05:57:03.192Z,3.60
2019-03-23T05:59:44.304Z,3.50
2019-03-23T06:02:26.616Z,3.60
2019-03-23T06:05:08.489Z,3.60
2019-03-23T06:07:50.469Z,3.60
2019-03-23T06:10:32.491Z,3.50
2019-03-23T06:13:13.621Z,3.60
2019-03-23T06:15:55.575Z,3.60
2019-03-23T06:18:37.484Z,3.60
2019-03-23T06:21:19.507Z,3.50
2019-03-23T06:24:01.720Z,3.60
2019-03-23T06:26:43.760Z,3.50
2019-03-23T06:29:26.003Z,3.60
2019-03-23T06:32:07.833Z,3.60
2019-03-23T06:34:49.701Z,3.50
2019-03-23T06:37:31.846Z,3.50
2019-03-23T06:40:13.924Z,3.60
2019-03-23T06:42:59.683Z,3.60
2019-03-23T06:45:39.215Z,3.80
2019-03-23T06:48:20.932Z,3.70
2019-03-23T06:51:03.373Z,4.10
2019-03-23T06:53:44.697Z,4.20
2019-03-23T06:56:26.557Z,4.30
2019-03-23T06:59:08.572Z,4.40
2019-03-23T07:01:50.647Z,4.60
2019-03-23T07:04:32.431Z,4.50
2019-03-23T07:07:14.484Z,4.60
2019-03-23T07:09:56.524Z,4.70
2019-03-23T07:12:38.565Z,4.70
2019-03-23T07:15:20.682Z,4.80
2019-03-23T07:18:04.303Z,4.90
2019-03-23T07:20:46.071Z,5.10
2019-03-23T07:23:28.116Z,5.10
2019-03-23T07:26:09.759Z,5.20
2019-03-23T07:28:51.576Z,5.20
2019-03-23T07:31:33.539Z,5.40
2019-03-23T07:34:15.645Z,5.60
2019-03-23T07:36:57.648Z,5.60
2019-03-23T07:39:39.597Z,5.70
2019-03-23T07:42:21.684Z,5.90
2019-03-23T07:45:03.586Z,6.00
2019-03-23T07:47:46.688Z,6.20
2019-03-23T07:50:28.701Z,6.30
2019-03-23T07:53:10.516Z,6.40
2019-03-23T07:55:52.591Z,6.60
2019-03-23T07:58:33.548Z,6.70
2019-03-23T08:01:15.629Z,6.90
2019-03-23T08:03:57.674Z,7.00
2019-03-23T08:06:39.517Z,7.20
2019-03-23T08:09:23.481Z,7.40
2019-03-23T08:12:04.647Z,7.50
2019-03-23T08:14:46.696Z,7.80
2019-03-23T08:17:28.551Z,8.00
2019-03-23T08:20:10.651Z,8.20
2019-03-23T08:22:52.555Z,8.30
2019-03-23T08:25:34.528Z,8.50
2019-03-23T08:28:16.424Z,8.70
2019-03-23T08:30:58.374Z,9.00
2019-03-23T08:33:40.428Z,9.30
2019-03-23T08:36:22.436Z,9.40
2019-03-23T08:39:04.944Z,9.50
2019-03-23T08:42:06.540Z,9.60
2019-03-23T08:44:48.597Z,9.80
2019-03-23T08:47:30.545Z,10.00
2019-03-23T08:50:12.470Z,10.00
2019-03-23T08:52:54.380Z,10.20
2019-03-23T08:55:36.128Z,10.30
2019-03-23T08:58:18.243Z,10.50
2019-03-23T09:01:00.435Z,10.60
2019-03-23T09:03:52.033Z,10.90
2019-03-23T09:06:26.403Z,11.20
2019-03-23T09:09:09.401Z,11.50
2019-03-23T09:11:51.431Z,11.90
2019-03-23T09:14:34.519Z,12.10
2019-03-23T09:17:16.320Z,12.40
2019-03-23T09:19:58.582Z,12.60
2019-03-23T09:22:40.519Z,12.90
2019-03-23T09:25:22.217Z,12.90
2019-03-23T09:28:04.147Z,13.20
2019-03-23T09:30:45.913Z,13.50
2019-03-23T09:33:27.692Z,13.70
2019-03-23T09:36:09.684Z,14.00
2019-03-23T09:38:51.809Z,14.10
2019-03-23T09:41:33.792Z,14.50
2019-03-23T09:44:15.732Z,14.70
2019-03-23T09:46:57.743Z,14.90
2019-03-23T09:49:39.613Z,14.90
2019-03-23T09:52:21.588Z,15.00
2019-03-23T09:55:03.440Z,15.20
2019-03-23T09:57:45.495Z,15.40
2019-03-23T10:00:27.407Z,15.60
2019-03-23T10:03:09.347Z,15.70
2019-03-23T10:05:51.228Z,15.90
2019-03-23T10:08:33.141Z,16.10
2019-03-23T10:11:15.104Z,16.20
2019-03-23T10:13:56.964Z,16.30
2019-03-23T10:16:38.861Z,16.40
2019-03-23T10:19:23.184Z,16.60
2019-03-23T10:22:04.737Z,16.70
2019-03-23T10:24:46.787Z,16.80
2019-03-23T10:27:28.793Z,16.90
2019-03-23T10:30:10.696Z,16.90
2019-03-23T10:32:52.751Z,17.00
2019-03-23T10:35:53.787Z,17.00
2019-03-23T10:38:34.979Z,17.00
2019-03-23T10:41:17.063Z,17.10
2019-03-23T10:43:58.809Z,17.20
2019-03-23T10:46:40.804Z,17.30
2019-03-23T10:49:24.638Z,17.40
2019-03-23T10:52:05.699Z,17.50
2019-03-23T10:54:47.589Z,17.60
2019-03-23T10:57:29.716Z,17.70
2019-03-23T11:00:11.815Z,17.80
2019-03-23T11:02:54.143Z,17.90
2019-03-23T11:05:36.092Z,18.20
2019-03-23T11:08:17.267Z,18.20
2019-03-23T11:10:59.244Z,18.40
2019-03-23T11:13:40.988Z,18.50
2019-03-23T11:16:24.072Z,18.60
2019-03-23T11:19:13.270Z,18.70
2019-03-23T11:21:35.887Z,18.90
2019-03-23T11:24:17.692Z,19.20
2019-03-23T11:27:19.774Z,19.40
2019-03-23T11:30:01.838Z,19.40
2019-03-23T11:32:42.824Z,19.40
2019-03-23T11:35:24.777Z,19.50
2019-03-23T11:40:53.839Z,19.50
2019-03-23T11:43:31.632Z,19.60
2019-03-23T11:46:16.932Z,19.80
2019-03-23T11:49:17.693Z,19.80
2019-03-23T11:51:59.700Z,19.80
2019-03-23T11:54:41.428Z,19.70
2019-03-23T11:57:23.424Z,19.70
2019-03-23T12:00:05.469Z,19.60
2019-03-23T12:02:47.413Z,19.40
2019-03-23T12:05:29.461Z,19.30
2019-03-23T12:08:11.342Z,19.00
2019-03-23T12:11:02.485Z,19.10
2019-03-23T12:13:37.489Z,19.00
2019-03-23T12:16:19.416Z,19.30
2019-03-23T12:19:00.964Z,19.30
2019-03-23T12:21:42.848Z,19.40
2019-03-23T12:24:24.516Z,19.40
2019-03-23T12:27:06.532Z,19.40
2019-03-23T12:29:48.399Z,19.20
2019-03-23T12:32:30.465Z,19.00
2019-03-23T12:35:12.128Z,19.10
2019-03-23T12:37:54.022Z,19.20
2019-03-23T12:40:36.561Z,19.30
2019-03-23T12:43:17.891Z,19.10
2019-03-23T12:45:59.748Z,19.10
2019-03-23T12:48:41.681Z,19.20
2019-03-23T12:51:24.536Z,19.30
2019-03-23T12:54:06.409Z,19.40
2019-03-23T12:56:49.171Z,19.30
2019-03-23T12:59:31.340Z,19.20
2019-03-23T13:02:13.448Z,19.10
2019-03-23T13:05:14.492Z,18.80
2019-03-23T13:07:56.443Z,18.80
2019-03-23T13:10:38.587Z,18.90
2019-03-23T13:13:20.171Z,19.10
2019-03-23T13:16:02.104Z,19.20
2019-03-23T13:18:44.101Z,19.30
2019-03-23T13:21:26.112Z,19.30
2019-03-23T13:24:07.967Z,19.20
2019-03-23T13:26:50.051Z,19.10
2019-03-23T13:29:32.011Z,19.20
2019-03-23T13:32:13.969Z,19.30
2019-03-23T13:34:55.887Z,19.10
2019-03-23T13:37:37.877Z,19.10
2019-03-23T13:40:19.624Z,19.00
2019-03-23T13:43:03.554Z,19.00
2019-03-23T13:45:45.645Z,19.00
2019-03-23T13:48:27.540Z,19.10
2019-03-23T13:51:09.627Z,19.00
2019-03-23T13:53:51.745Z,19.10
2019-03-23T13:56:33.608Z,19.10
2019-03-23T13:59:16.581Z,19.10
2019-03-23T14:01:58.375Z,19.00
2019-03-23T14:04:42.345Z,19.00
2019-03-23T14:07:24.439Z,19.10
2019-03-23T14:10:06.327Z,19.10
2019-03-23T14:12:50.179Z,19.10
2019-03-23T14:15:32.216Z,19.10
2019-03-23T14:18:13.242Z,19.10
2019-03-23T14:20:57.187Z,19.10
2019-03-23T14:23:39.223Z,19.10
2019-03-23T14:26:21.214Z,19.10
2019-03-23T14:29:03.288Z,18.80
2019-03-23T14:31:45.232Z,18.70
2019-03-23T14:34:27.273Z,18.70
2019-03-23T14:37:09.511Z,18.70
2019-03-23T14:39:51.428Z,18.80
2019-03-23T14:42:33.223Z,18.80
2019-03-23T14:45:15.306Z,18.80
2019-03-23T14:47:57.111Z,18.80
2019-03-23T14:50:25.198Z,18.70
2019-03-23T14:53:07.060Z,18.70
2019-03-23T14:55:49.132Z,18.70
2019-03-23T14:58:31.164Z,18.70
2019-03-23T15:01:13.264Z,18.60
2019-03-23T15:03:55.151Z,18.70
2019-03-23T15:06:37.426Z,18.60
2019-03-23T15:09:19.468Z,18.60
2019-03-23T15:12:01.300Z,18.60
2019-03-23T15:14:45.028Z,18.70
2019-03-23T15:17:27.037Z,18.50
2019-03-23T15:20:09.060Z,18.50
2019-03-23T15:22:51.084Z,18.30
2019-03-23T15:25:33.065Z,18.30
2019-03-23T15:28:14.896Z,18.30
2019-03-23T15:30:56.855Z,18.20
2019-03-23T15:33:38.887Z,18.10
2019-03-23T15:36:20.951Z,18.00
2019-03-23T15:39:04.163Z,17.80
2019-03-23T15:41:45.775Z,17.50
2019-03-23T15:44:27.661Z,17.50
2019-03-23T15:47:09.777Z,17.30
2019-03-23T15:49:51.850Z,17.20
2019-03-23T15:52:33.907Z,17.20
2019-03-23T15:55:15.844Z,17.10
2019-03-23T15:57:59.665Z,17.10
2019-03-23T16:00:41.668Z,17.00
2019-03-23T16:03:23.826Z,17.00
2019-03-23T16:06:06.732Z,16.80
2019-03-23T16:08:48.826Z,16.80
2019-03-23T16:11:30.888Z,16.70
2019-03-23T16:14:12.760Z,16.60
2019-03-23T16:16:54.769Z,16.50
2019-03-23T16:19:36.657Z,16.40
2019-03-23T16:22:18.944Z,16.30
2019-03-23T16:24:47.082Z,16.20
2019-03-23T16:27:49.448Z,16.20
2019-03-23T16:30:31.329Z,16.10
2019-03-23T16:33:13.501Z,16.00
2019-03-23T16:35:56.272Z,16.00
2019-03-23T16:38:38.071Z,15.90
2019-03-23T16:41:20.237Z,15.80
2019-03-23T16:44:02.131Z,15.80
2019-03-23T16:46:44.020Z,15.60
2019-03-23T16:49:25.771Z,15.40
2019-03-23T16:51:53.963Z,15.40
2019-03-23T16:54:36.577Z,15.20
2019-03-23T16:57:18.896Z,15.10
2019-03-23T17:00:00.428Z,14.90
2019-03-23T17:02:42.516Z,14.80
2019-03-23T17:05:24.196Z,14.60
2019-03-23T17:08:04.924Z,14.50
2019-03-23T17:10:47.014Z,14.40
2019-03-23T17:13:29.013Z,14.20
2019-03-23T17:16:10.999Z,14.10
2019-03-23T17:18:52.932Z,13.90
2019-03-23T17:21:34.747Z,13.90
2019-03-23T17:24:16.772Z,13.70
2019-03-23T17:26:58.828Z,13.60
2019-03-23T17:29:41.075Z,13.50
2019-03-23T17:32:22.937Z,13.40
2019-03-23T17:35:04.898Z,13.40
2019-03-23T17:37:46.957Z,13.30
2019-03-23T17:40:29.071Z,13.30
2019-03-23T17:43:11.048Z,13.20
2019-03-23T17:45:53.171Z,13.10
2019-03-23T17:48:34.904Z,13.00
2019-03-23T17:51:16.943Z,13.00
2019-03-23T17:54:00.898Z,12.90
2019-03-23T17:56:42.796Z,12.80
2019-03-23T17:59:24.579Z,12.70
2019-03-23T18:02:06.615Z,12.60
2019-03-23T18:04:48.307Z,12.30
2019-03-23T18:07:30.154Z,12.40
2019-03-23T18:15:35.097Z,12.40
2019-03-23T18:18:17.074Z,12.30
2019-03-23T18:20:59.039Z,12.20
2019-03-23T18:23:40.092Z,12.20
2019-03-23T18:26:22.143Z,12.20
2019-03-23T18:29:03.957Z,12.10
2019-03-23T18:31:45.760Z,12.00
2019-03-23T18:34:56.796Z,12.00
2019-03-23T18:37:39.596Z,12.00
2019-03-23T18:40:21.339Z,11.90
2019-03-23T18:43:03.258Z,11.90
2019-03-23T18:45:45.252Z,11.90
2019-03-23T18:48:27.364Z,11.80
2019-03-23T18:51:09.224Z,11.90
2019-03-23T18:53:51.191Z,11.90
2019-03-23T18:56:33.427Z,11.90
2019-03-23T18:59:15.516Z,11.70
2019-03-23T19:01:57.395Z,11.80
2019-03-23T19:04:25.405Z,11.80
2019-03-23T19:07:08.388Z,11.60
2019-03-23T19:09:50.639Z,11.60
2019-03-23T19:12:32.053Z,11.40
2019-03-23T19:15:14.130Z,11.40
2019-03-23T19:17:56.011Z,10.90
2019-03-23T19:20:37.871Z,10.90
2019-03-23T19:23:19.999Z,10.70
2019-03-23T19:26:02.039Z,10.60
2019-03-23T19:28:43.987Z,10.60
2019-03-23T19:31:25.748Z,10.60
2019-03-23T19:34:07.500Z,10.60
2019-03-23T19:36:48.472Z,10.40
2019-03-23T19:39:30.641Z,10.50
2019-03-23T19:42:12.765Z,10.40
2019-03-23T19:44:54.564Z,10.30
2019-03-23T19:47:36.746Z,10.50
2019-03-23T19:50:18.864Z,10.50
2019-03-23T19:53:00.731Z,10.50
2019-03-23T19:55:42.951Z,10.30
2019-03-23T19:58:24.920Z,10.30
2019-03-23T20:01:06.979Z,10.40
2019-03-23T20:03:49.046Z,10.30
2019-03-23T20:06:31.043Z,10.30
2019-03-23T20:08:59.139Z,10.30
2019-03-23T20:11:40.902Z,10.40
2019-03-23T20:14:22.199Z,10.40
2019-03-23T20:17:04.151Z,10.40
2019-03-23T20:19:46.424Z,10.10
2019-03-23T20:22:28.615Z,10.00
2019-03-23T20:25:10.424Z,9.90
2019-03-23T20:27:52.347Z,10.00
2019-03-23T20:30:34.195Z,9.90
2019-03-23T20:33:19.615Z,9.80
2019-03-23T20:35:59.008Z,9.70
2019-03-23T20:38:40.935Z,9.70
2019-03-23T20:41:23.011Z,9.70
2019-03-23T20:44:09.737Z,9.60
2019-03-23T20:46:48.851Z,9.60
2019-03-23T20:49:30.784Z,9.50
2019-03-23T20:52:12.731Z,9.50
2019-03-23T20:54:54.695Z,9.40
2019-03-23T20:57:37.623Z,9.40
2019-03-23T21:00:19.388Z,9.20
2019-03-23T21:03:03.445Z,9.20
2019-03-23T21:05:45.228Z,9.20
2019-03-23T21:08:27.200Z,9.10
2019-03-23T21:11:09.477Z,9.00
2019-03-23T21:13:51.850Z,9.00
2019-03-23T21:16:34.789Z,8.90
2019-03-23T21:19:16.679Z,8.90
2019-03-23T21:21:57.677Z,9.00
2019-03-23T21:24:38.933Z,8.90
2019-03-23T21:27:20.776Z,8.80
2019-03-23T21:30:03.275Z,8.80
2019-03-23T21:32:46.007Z,8.90
2019-03-23T21:35:27.902Z,8.90
2019-03-23T21:38:10.727Z,9.00
2019-03-23T21:40:53.120Z,9.00
2019-03-23T21:43:35.607Z,9.00
2019-03-23T21:46:17.661Z,9.10
2019-03-23T21:48:59.707Z,9.00
2019-03-23T21:51:41.721Z,9.10
2019-03-23T21:54:25.704Z,9.10
2019-03-23T21:57:07.712Z,9.10
2019-03-23T21:59:49.646Z,9.10
2019-03-23T22:02:31.483Z,9.20
2019-03-23T22:05:13.559Z,9.20
2019-03-23T22:07:56.285Z,9.10
2019-03-23T22:10:38.247Z,9.10
2019-03-23T22:13:20.167Z,9.10
2019-03-23T22:16:02.116Z,9.10
2019-03-23T22:18:44.987Z,9.10
2019-03-23T22:21:28.869Z,9.10
2019-03-23T22:24:10.963Z,9.10
2019-03-23T22:26:53.128Z,9.00
2019-03-23T22:29:35.052Z,8.90
2019-03-23T22:32:17.173Z,8.90
2019-03-23T22:34:59.213Z,9.00
2019-03-23T22:37:40.977Z,9.00
2019-03-23T22:40:23.024Z,9.10
2019-03-23T22:43:05.145Z,9.00
2019-03-23T22:45:47.540Z,9.00
2019-03-23T22:48:29.042Z,9.10
2019-03-23T22:51:11.095Z,9.10
2019-03-23T22:53:55.188Z,9.00
2019-03-23T22:56:37.303Z,9.00
2019-03-23T22:59:19.799Z,9.00
2019-03-23T23:02:01.735Z,8.90
2019-03-23T23:04:43.803Z,9.00
2019-03-23T23:07:26.400Z,9.00
2019-03-23T23:10:08.700Z,9.00
2019-03-23T23:12:37.127Z,9.00
2019-03-23T23:15:18.700Z,8.90
2019-03-23T23:18:01.860Z,8.90
2019-03-23T23:20:43.765Z,8.80
2019-03-23T23:23:25.727Z,8.80
2019-03-23T23:26:07.863Z,8.70
2019-03-23T23:28:49.711Z,8.80
2019-03-23T23:31:31.767Z,8.70
2019-03-23T23:34:12.874Z,8.70
2019-03-23T23:36:54.890Z,8.70
2019-03-23T23:39:36.771Z,8.70
2019-03-23T23:42:19.016Z,8.60
2019-03-23T23:45:00.317Z,8.70
2019-03-23T23:47:41.987Z,8.70
2019-03-23T23:50:23.875Z,8.60
2019-03-23T23:52:51.998Z,8.60
2019-03-23T23:55:33.419Z,8.50
2019-03-23T23:58:15.347Z,8.60
